sensor_id;sensor_type;location;lat;lon;timestamp;P1;durP1;ratioP1;P2;durP2;ratioP2
29196;SDS011;62796;42.654;23.316;2023-03-23T00:02:14;62.13;;;33.65;;
29196;SDS011;62796;42.654;23.316;2023-03-23T00:04:39;60.08;;;32.78;;
29196;SDS011;62796;42.654;23.316;2023-03-23T00:07:05;55.47;;;31.77;;
29196;SDS011;62796;42.654;23.316;2023-03-23T00:09:30;62.58;;;31.38;;
29196;SDS011;62796;42.654;23.316;2023-03-23T00:11:59;58.55;;;31.95;;
29196;SDS011;62796;42.654;23.316;2023-03-23T00:14:33;63.25;;;32.95;;
29196;SDS011;62796;42.654;23.316;2023-03-23T00:17:06;62.40;;;32.97;;
29196;SDS011;62796;42.654;23.316;2023-03-23T00:19:35;57.55;;;32.90;;
29196;SDS011;62796;42.654;23.316;2023-03-23T00:22:10;50.72;;;31.85;;
29196;SDS011;62796;42.654;23.316;2023-03-23T00:24:36;58.65;;;32.38;;
29196;SDS011;62796;42.654;23.316;2023-03-23T00:27:02;57.88;;;32.70;;
29196;SDS011;62796;42.654;23.316;2023-03-23T00:29:28;54.35;;;32.25;;
29196;SDS011;62796;42.654;23.316;2023-03-23T00:31:53;52.47;;;32.58;;
29196;SDS011;62796;42.654;23.316;2023-03-23T00:34:22;55.70;;;32.42;;
29196;SDS011;62796;42.654;23.316;2023-03-23T00:36:50;56.22;;;32.53;;
29196;SDS011;62796;42.654;23.316;2023-03-23T00:39:18;48.28;;;29.55;;
29196;SDS011;62796;42.654;23.316;2023-03-23T00:41:44;50.35;;;30.08;;
29196;SDS011;62796;42.654;23.316;2023-03-23T00:44:11;50.97;;;29.73;;
29196;SDS011;62796;42.654;23.316;2023-03-23T00:46:42;48.53;;;26.70;;
29196;SDS011;62796;42.654;23.316;2023-03-23T00:49:10;48.15;;;29.17;;
29196;SDS011;62796;42.654;23.316;2023-03-23T00:51:37;48.80;;;29.20;;
29196;SDS011;62796;42.654;23.316;2023-03-23T00:54:03;47.97;;;28.60;;
29196;SDS011;62796;42.654;23.316;2023-03-23T00:56:29;52.58;;;30.85;;
29196;SDS011;62796;42.654;23.316;2023-03-23T00:58:54;50.20;;;29.83;;
29196;SDS011;62796;42.654;23.316;2023-03-23T01:01:20;53.13;;;29.17;;
29196;SDS011;62796;42.654;23.316;2023-03-23T01:03:45;47.60;;;27.83;;
29196;SDS011;62796;42.654;23.316;2023-03-23T01:06:11;47.53;;;28.65;;
29196;SDS011;62796;42.654;23.316;2023-03-23T01:08:38;48.63;;;28.25;;
29196;SDS011;62796;42.654;23.316;2023-03-23T01:11:10;49.28;;;26.17;;
29196;SDS011;62796;42.654;23.316;2023-03-23T01:13:37;40.58;;;25.05;;
29196;SDS011;62796;42.654;23.316;2023-03-23T01:16:03;38.33;;;23.45;;
29196;SDS011;62796;42.654;23.316;2023-03-23T01:18:28;37.10;;;23.60;;
29196;SDS011;62796;42.654;23.316;2023-03-23T01:20:54;33.40;;;22.60;;
29196;SDS011;62796;42.654;23.316;2023-03-23T01:23:19;38.30;;;25.45;;
29196;SDS011;62796;42.654;23.316;2023-03-23T01:25:45;37.83;;;24.17;;
29196;SDS011;62796;42.654;23.316;2023-03-23T01:28:10;36.97;;;23.33;;
29196;SDS011;62796;42.654;23.316;2023-03-23T01:30:36;39.63;;;23.15;;
29196;SDS011;62796;42.654;23.316;2023-03-23T01:33:02;39.20;;;22.80;;
29196;SDS011;62796;42.654;23.316;2023-03-23T01:35:27;34.42;;;22.17;;
29196;SDS011;62796;42.654;23.316;2023-03-23T01:37:53;36.95;;;23.77;;
29196;SDS011;62796;42.654;23.316;2023-03-23T01:40:19;37.90;;;23.85;;
29196;SDS011;62796;42.654;23.316;2023-03-23T01:42:45;38.70;;;24.00;;
29196;SDS011;62796;42.654;23.316;2023-03-23T01:48:46;45.92;;;27.52;;
29196;SDS011;62796;42.654;23.316;2023-03-23T01:53:24;42.65;;;27.17;;
29196;SDS011;62796;42.654;23.316;2023-03-23T01:55:54;41.60;;;24.58;;
29196;SDS011;62796;42.654;23.316;2023-03-23T01:58:23;42.20;;;26.13;;
29196;SDS011;62796;42.654;23.316;2023-03-23T02:00:52;43.28;;;26.52;;
29196;SDS011;62796;42.654;23.316;2023-03-23T02:03:20;46.08;;;27.40;;
29196;SDS011;62796;42.654;23.316;2023-03-23T02:05:48;53.22;;;28.55;;
29196;SDS011;62796;42.654;23.316;2023-03-23T02:08:14;45.80;;;27.55;;
29196;SDS011;62796;42.654;23.316;2023-03-23T02:10:41;46.35;;;27.75;;
29196;SDS011;62796;42.654;23.316;2023-03-23T02:13:07;42.05;;;26.02;;
29196;SDS011;62796;42.654;23.316;2023-03-23T02:19:16;49.30;;;27.33;;
29196;SDS011;62796;42.654;23.316;2023-03-23T02:27:04;33.55;;;22.15;;
29196;SDS011;62796;42.654;23.316;2023-03-23T02:32:21;31.42;;;19.88;;
29196;SDS011;62796;42.654;23.316;2023-03-23T02:35:28;26.73;;;18.13;;
29196;SDS011;62796;42.654;23.316;2023-03-23T02:38:02;29.52;;;19.27;;
29196;SDS011;62796;42.654;23.316;2023-03-23T02:40:39;29.17;;;19.42;;
29196;SDS011;62796;42.654;23.316;2023-03-23T02:43:08;31.65;;;17.80;;
29196;SDS011;62796;42.654;23.316;2023-03-23T02:45:37;30.02;;;18.98;;
29196;SDS011;62796;42.654;23.316;2023-03-23T02:48:05;27.98;;;18.67;;
29196;SDS011;62796;42.654;23.316;2023-03-23T02:50:32;31.55;;;17.27;;
29196;SDS011;62796;42.654;23.316;2023-03-23T02:53:00;26.20;;;16.90;;
29196;SDS011;62796;42.654;23.316;2023-03-23T02:55:28;24.92;;;16.10;;
29196;SDS011;62796;42.654;23.316;2023-03-23T02:57:56;25.98;;;17.05;;
29196;SDS011;62796;42.654;23.316;2023-03-23T03:00:21;25.85;;;17.15;;
29196;SDS011;62796;42.654;23.316;2023-03-23T03:02:48;27.33;;;16.55;;
29196;SDS011;62796;42.654;23.316;2023-03-23T03:05:30;26.25;;;18.42;;
29196;SDS011;62796;42.654;23.316;2023-03-23T03:11:11;34.22;;;23.45;;
29196;SDS011;62796;42.654;23.316;2023-03-23T03:13:42;39.45;;;23.73;;
29196;SDS011;62796;42.654;23.316;2023-03-23T03:16:24;43.63;;;27.38;;
29196;SDS011;62796;42.654;23.316;2023-03-23T03:21:40;53.50;;;30.25;;
29196;SDS011;62796;42.654;23.316;2023-03-23T03:24:09;55.65;;;31.67;;
29196;SDS011;62796;42.654;23.316;2023-03-23T03:26:39;61.83;;;35.90;;
29196;SDS011;62796;42.654;23.316;2023-03-23T03:29:13;60.15;;;34.47;;
29196;SDS011;62796;42.654;23.316;2023-03-23T03:31:42;63.35;;;35.92;;
29196;SDS011;62796;42.654;23.316;2023-03-23T03:34:10;62.75;;;34.97;;
29196;SDS011;62796;42.654;23.316;2023-03-23T03:36:36;78.47;;;38.30;;
29196;SDS011;62796;42.654;23.316;2023-03-23T03:39:07;72.07;;;37.92;;
29196;SDS011;62796;42.654;23.316;2023-03-23T03:41:34;70.40;;;38.55;;
29196;SDS011;62796;42.654;23.316;2023-03-23T03:44:00;72.68;;;38.30;;
29196;SDS011;62796;42.654;23.316;2023-03-23T03:46:26;69.32;;;36.45;;
29196;SDS011;62796;42.654;23.316;2023-03-23T03:48:54;66.32;;;35.45;;
29196;SDS011;62796;42.654;23.316;2023-03-23T03:51:21;60.45;;;35.05;;
29196;SDS011;62796;42.654;23.316;2023-03-23T03:53:47;58.08;;;34.30;;
29196;SDS011;62796;42.654;23.316;2023-03-23T03:56:13;61.85;;;36.05;;
29196;SDS011;62796;42.654;23.316;2023-03-23T03:58:39;60.80;;;33.90;;
29196;SDS011;62796;42.654;23.316;2023-03-23T04:01:07;62.05;;;34.08;;
29196;SDS011;62796;42.654;23.316;2023-03-23T04:03:35;59.70;;;34.42;;
29196;SDS011;62796;42.654;23.316;2023-03-23T04:06:02;55.63;;;34.90;;
29196;SDS011;62796;42.654;23.316;2023-03-23T04:08:28;57.97;;;33.50;;
29196;SDS011;62796;42.654;23.316;2023-03-23T04:10:54;59.97;;;33.83;;
29196;SDS011;62796;42.654;23.316;2023-03-23T04:13:20;60.42;;;34.35;;
29196;SDS011;62796;42.654;23.316;2023-03-23T04:15:46;55.42;;;34.08;;
29196;SDS011;62796;42.654;23.316;2023-03-23T04:18:12;57.90;;;33.22;;
29196;SDS011;62796;42.654;23.316;2023-03-23T04:20:40;54.70;;;33.85;;
29196;SDS011;62796;42.654;23.316;2023-03-23T04:23:07;55.90;;;33.00;;
29196;SDS011;62796;42.654;23.316;2023-03-23T04:25:32;57.17;;;33.47;;
29196;SDS011;62796;42.654;23.316;2023-03-23T04:27:58;58.95;;;33.83;;
29196;SDS011;62796;42.654;23.316;2023-03-23T04:30:26;52.85;;;32.65;;
29196;SDS011;62796;42.654;23.316;2023-03-23T04:32:54;55.35;;;33.03;;
29196;SDS011;62796;42.654;23.316;2023-03-23T04:35:21;54.42;;;31.63;;
29196;SDS011;62796;42.654;23.316;2023-03-23T04:37:49;54.83;;;31.80;;
29196;SDS011;62796;42.654;23.316;2023-03-23T04:40:15;51.92;;;31.27;;
29196;SDS011;62796;42.654;23.316;2023-03-23T04:42:42;91.35;;;44.90;;
29196;SDS011;62796;42.654;23.316;2023-03-23T04:45:12;99.70;;;51.45;;
29196;SDS011;62796;42.654;23.316;2023-03-23T04:47:39;82.88;;;43.25;;
29196;SDS011;62796;42.654;23.316;2023-03-23T04:50:10;81.30;;;45.08;;
29196;SDS011;62796;42.654;23.316;2023-03-23T04:52:39;73.47;;;39.47;;
29196;SDS011;62796;42.654;23.316;2023-03-23T04:55:09;73.90;;;40.55;;
29196;SDS011;62796;42.654;23.316;2023-03-23T04:57:35;76.85;;;43.97;;
29196;SDS011;62796;42.654;23.316;2023-03-23T05:00:02;75.32;;;43.72;;
29196;SDS011;62796;42.654;23.316;2023-03-23T05:02:35;64.20;;;37.97;;
29196;SDS011;62796;42.654;23.316;2023-03-23T05:05:01;61.10;;;35.88;;
29196;SDS011;62796;42.654;23.316;2023-03-23T05:07:27;48.88;;;30.85;;
29196;SDS011;62796;42.654;23.316;2023-03-23T05:09:52;63.17;;;34.08;;
29196;SDS011;62796;42.654;23.316;2023-03-23T05:12:17;59.03;;;34.88;;
29196;SDS011;62796;42.654;23.316;2023-03-23T05:14:43;58.15;;;32.38;;
29196;SDS011;62796;42.654;23.316;2023-03-23T05:17:08;63.78;;;35.08;;
29196;SDS011;62796;42.654;23.316;2023-03-23T05:19:34;109.93;;;51.03;;
29196;SDS011;62796;42.654;23.316;2023-03-23T05:22:01;112.63;;;51.65;;
29196;SDS011;62796;42.654;23.316;2023-03-23T05:24:31;84.88;;;46.17;;
29196;SDS011;62796;42.654;23.316;2023-03-23T05:27:00;53.05;;;33.55;;
29196;SDS011;62796;42.654;23.316;2023-03-23T05:29:28;57.17;;;29.48;;
29196;SDS011;62796;42.654;23.316;2023-03-23T05:31:55;45.45;;;27.35;;
29196;SDS011;62796;42.654;23.316;2023-03-23T05:34:25;46.75;;;25.00;;
29196;SDS011;62796;42.654;23.316;2023-03-23T05:36:51;43.70;;;27.27;;
29196;SDS011;62796;42.654;23.316;2023-03-23T05:39:18;48.10;;;27.83;;
29196;SDS011;62796;42.654;23.316;2023-03-23T05:41:44;52.05;;;27.65;;
29196;SDS011;62796;42.654;23.316;2023-03-23T05:44:09;40.13;;;24.10;;
29196;SDS011;62796;42.654;23.316;2023-03-23T05:46:35;47.63;;;26.08;;
29196;SDS011;62796;42.654;23.316;2023-03-23T05:49:00;45.97;;;26.73;;
29196;SDS011;62796;42.654;23.316;2023-03-23T05:51:27;53.65;;;28.13;;
29196;SDS011;62796;42.654;23.316;2023-03-23T05:53:52;54.63;;;30.10;;
29196;SDS011;62796;42.654;23.316;2023-03-23T05:56:17;52.00;;;31.35;;
29196;SDS011;62796;42.654;23.316;2023-03-23T05:58:43;62.67;;;33.22;;
29196;SDS011;62796;42.654;23.316;2023-03-23T06:01:08;51.63;;;30.08;;
29196;SDS011;62796;42.654;23.316;2023-03-23T06:03:34;56.42;;;30.63;;
29196;SDS011;62796;42.654;23.316;2023-03-23T06:06:02;55.63;;;30.40;;
29196;SDS011;62796;42.654;23.316;2023-03-23T06:08:28;54.80;;;29.75;;
29196;SDS011;62796;42.654;23.316;2023-03-23T06:10:55;45.63;;;26.98;;
29196;SDS011;62796;42.654;23.316;2023-03-23T06:13:21;43.85;;;25.33;;
29196;SDS011;62796;42.654;23.316;2023-03-23T06:15:48;44.03;;;25.83;;
29196;SDS011;62796;42.654;23.316;2023-03-23T06:18:14;60.75;;;29.13;;
29196;SDS011;62796;42.654;23.316;2023-03-23T06:20:39;48.30;;;27.10;;
29196;SDS011;62796;42.654;23.316;2023-03-23T06:23:05;45.95;;;27.60;;
29196;SDS011;62796;42.654;23.316;2023-03-23T06:25:31;53.22;;;26.73;;
29196;SDS011;62796;42.654;23.316;2023-03-23T06:27:57;48.47;;;26.17;;
29196;SDS011;62796;42.654;23.316;2023-03-23T06:30:23;51.75;;;28.38;;
29196;SDS011;62796;42.654;23.316;2023-03-23T06:32:48;49.17;;;28.33;;
29196;SDS011;62796;42.654;23.316;2023-03-23T06:35:15;52.55;;;28.17;;
29196;SDS011;62796;42.654;23.316;2023-03-23T06:37:41;44.90;;;28.35;;
29196;SDS011;62796;42.654;23.316;2023-03-23T06:40:07;48.28;;;28.42;;
29196;SDS011;62796;42.654;23.316;2023-03-23T06:42:35;47.75;;;28.10;;
29196;SDS011;62796;42.654;23.316;2023-03-23T06:45:01;49.88;;;29.17;;
29196;SDS011;62796;42.654;23.316;2023-03-23T06:47:27;55.75;;;32.75;;
29196;SDS011;62796;42.654;23.316;2023-03-23T06:49:54;50.03;;;30.02;;
29196;SDS011;62796;42.654;23.316;2023-03-23T06:52:21;48.88;;;28.20;;
29196;SDS011;62796;42.654;23.316;2023-03-23T06:54:48;45.72;;;28.00;;
29196;SDS011;62796;42.654;23.316;2023-03-23T06:57:14;45.17;;;26.88;;
29196;SDS011;62796;42.654;23.316;2023-03-23T06:59:40;44.95;;;26.90;;
29196;SDS011;62796;42.654;23.316;2023-03-23T07:02:08;38.30;;;25.65;;
29196;SDS011;62796;42.654;23.316;2023-03-23T07:04:34;37.38;;;25.83;;
29196;SDS011;62796;42.654;23.316;2023-03-23T07:07:00;39.03;;;26.67;;
29196;SDS011;62796;42.654;23.316;2023-03-23T07:09:26;40.55;;;26.02;;
29196;SDS011;62796;42.654;23.316;2023-03-23T07:11:52;38.83;;;25.40;;
29196;SDS011;62796;42.654;23.316;2023-03-23T07:14:17;37.97;;;25.20;;
29196;SDS011;62796;42.654;23.316;2023-03-23T07:16:43;38.03;;;25.98;;
29196;SDS011;62796;42.654;23.316;2023-03-23T07:19:08;35.03;;;24.27;;
29196;SDS011;62796;42.654;23.316;2023-03-23T07:21:34;38.85;;;24.40;;
29196;SDS011;62796;42.654;23.316;2023-03-23T07:23:59;35.67;;;23.92;;
29196;SDS011;62796;42.654;23.316;2023-03-23T07:26:24;31.55;;;22.52;;
29196;SDS011;62796;42.654;23.316;2023-03-23T07:28:50;39.50;;;22.90;;
29196;SDS011;62796;42.654;23.316;2023-03-23T07:31:15;33.53;;;23.27;;
29196;SDS011;62796;42.654;23.316;2023-03-23T07:33:41;32.50;;;21.90;;
29196;SDS011;62796;42.654;23.316;2023-03-23T07:36:06;33.65;;;22.55;;
29196;SDS011;62796;42.654;23.316;2023-03-23T07:38:33;34.28;;;23.75;;
29196;SDS011;62796;42.654;23.316;2023-03-23T07:40:58;53.25;;;34.47;;
29196;SDS011;62796;42.654;23.316;2023-03-23T07:43:24;43.83;;;30.45;;
29196;SDS011;62796;42.654;23.316;2023-03-23T07:45:50;46.90;;;33.70;;
29196;SDS011;62796;42.654;23.316;2023-03-23T07:48:15;31.63;;;22.23;;
29196;SDS011;62796;42.654;23.316;2023-03-23T07:50:41;37.08;;;22.90;;
29196;SDS011;62796;42.654;23.316;2023-03-23T07:53:06;35.20;;;21.98;;
29196;SDS011;62796;42.654;23.316;2023-03-23T07:55:32;36.00;;;21.55;;
29196;SDS011;62796;42.654;23.316;2023-03-23T07:57:58;33.95;;;24.88;;
29196;SDS011;62796;42.654;23.316;2023-03-23T08:00:24;50.58;;;30.67;;
29196;SDS011;62796;42.654;23.316;2023-03-23T08:02:51;96.32;;;32.33;;
29196;SDS011;62796;42.654;23.316;2023-03-23T08:05:21;36.03;;;22.50;;
29196;SDS011;62796;42.654;23.316;2023-03-23T08:07:47;32.10;;;22.23;;
29196;SDS011;62796;42.654;23.316;2023-03-23T08:10:13;78.88;;;25.17;;
29196;SDS011;62796;42.654;23.316;2023-03-23T08:12:40;35.25;;;21.33;;
29196;SDS011;62796;42.654;23.316;2023-03-23T08:15:07;33.33;;;21.20;;
29196;SDS011;62796;42.654;23.316;2023-03-23T08:17:37;24.48;;;19.20;;
29196;SDS011;62796;42.654;23.316;2023-03-23T08:20:04;30.98;;;20.08;;
29196;SDS011;62796;42.654;23.316;2023-03-23T08:25:05;23.33;;;16.95;;
29196;SDS011;62796;42.654;23.316;2023-03-23T08:27:32;24.35;;;17.75;;
29196;SDS011;62796;42.654;23.316;2023-03-23T08:29:58;21.25;;;16.17;;
29196;SDS011;62796;42.654;23.316;2023-03-23T08:32:24;32.25;;;16.10;;
29196;SDS011;62796;42.654;23.316;2023-03-23T08:34:50;24.92;;;16.40;;
29196;SDS011;62796;42.654;23.316;2023-03-23T08:37:16;23.80;;;16.67;;
29196;SDS011;62796;42.654;23.316;2023-03-23T08:39:42;25.55;;;17.25;;
29196;SDS011;62796;42.654;23.316;2023-03-23T08:42:09;20.77;;;15.57;;
29196;SDS011;62796;42.654;23.316;2023-03-23T08:44:35;22.85;;;16.75;;
29196;SDS011;62796;42.654;23.316;2023-03-23T08:47:01;22.27;;;15.85;;
29196;SDS011;62796;42.654;23.316;2023-03-23T08:49:28;15.18;;;10.55;;
29196;SDS011;62796;42.654;23.316;2023-03-23T08:51:58;13.05;;;9.88;;
29196;SDS011;62796;42.654;23.316;2023-03-23T08:54:24;20.75;;;11.57;;
29196;SDS011;62796;42.654;23.316;2023-03-23T08:56:50;46.10;;;13.93;;
29196;SDS011;62796;42.654;23.316;2023-03-23T08:59:16;17.63;;;9.88;;
29196;SDS011;62796;42.654;23.316;2023-03-23T09:01:41;11.07;;;7.97;;
29196;SDS011;62796;42.654;23.316;2023-03-23T09:04:07;13.77;;;8.75;;
29196;SDS011;62796;42.654;23.316;2023-03-23T09:06:34;14.63;;;8.77;;
29196;SDS011;62796;42.654;23.316;2023-03-23T09:09:01;21.95;;;9.10;;
29196;SDS011;62796;42.654;23.316;2023-03-23T09:11:31;41.72;;;12.25;;
29196;SDS011;62796;42.654;23.316;2023-03-23T09:14:00;29.65;;;9.40;;
29196;SDS011;62796;42.654;23.316;2023-03-23T09:16:27;13.02;;;9.48;;
29196;SDS011;62796;42.654;23.316;2023-03-23T09:18:53;14.98;;;9.52;;
29196;SDS011;62796;42.654;23.316;2023-03-23T09:21:18;13.40;;;8.90;;
29196;SDS011;62796;42.654;23.316;2023-03-23T09:23:45;15.30;;;10.35;;
29196;SDS011;62796;42.654;23.316;2023-03-23T09:26:11;12.57;;;9.65;;
29196;SDS011;62796;42.654;23.316;2023-03-23T09:28:37;12.65;;;9.90;;
29196;SDS011;62796;42.654;23.316;2023-03-23T09:31:02;17.92;;;10.52;;
29196;SDS011;62796;42.654;23.316;2023-03-23T09:33:29;10.80;;;9.00;;
29196;SDS011;62796;42.654;23.316;2023-03-23T09:35:58;17.27;;;10.68;;
29196;SDS011;62796;42.654;23.316;2023-03-23T09:38:23;11.82;;;9.13;;
29196;SDS011;62796;42.654;23.316;2023-03-23T09:48:51;12.85;;;9.73;;
29196;SDS011;62796;42.654;23.316;2023-03-23T09:51:54;16.13;;;9.95;;
29196;SDS011;62796;42.654;23.316;2023-03-23T09:54:27;16.20;;;9.60;;
29196;SDS011;62796;42.654;23.316;2023-03-23T09:56:52;11.73;;;9.40;;
29196;SDS011;62796;42.654;23.316;2023-03-23T10:02:01;12.50;;;8.43;;
29196;SDS011;62796;42.654;23.316;2023-03-23T10:04:38;13.07;;;8.97;;
29196;SDS011;62796;42.654;23.316;2023-03-23T10:07:16;13.75;;;9.98;;
29196;SDS011;62796;42.654;23.316;2023-03-23T10:09:44;15.55;;;9.95;;
29196;SDS011;62796;42.654;23.316;2023-03-23T10:17:35;14.88;;;9.63;;
29196;SDS011;62796;42.654;23.316;2023-03-23T10:25:51;12.18;;;9.30;;
29196;SDS011;62796;42.654;23.316;2023-03-23T10:28:21;11.98;;;8.32;;
29196;SDS011;62796;42.654;23.316;2023-03-23T10:30:54;13.25;;;8.70;;
29196;SDS011;62796;42.654;23.316;2023-03-23T10:41:22;16.00;;;9.63;;
29196;SDS011;62796;42.654;23.316;2023-03-23T10:43:47;13.05;;;8.55;;
29196;SDS011;62796;42.654;23.316;2023-03-23T10:49:02;13.70;;;8.13;;
29196;SDS011;62796;42.654;23.316;2023-03-23T10:51:33;12.45;;;8.50;;
29196;SDS011;62796;42.654;23.316;2023-03-23T10:54:02;20.25;;;12.05;;
29196;SDS011;62796;42.654;23.316;2023-03-23T10:59:42;10.40;;;8.88;;
29196;SDS011;62796;42.654;23.316;2023-03-23T11:02:10;15.43;;;8.20;;
29196;SDS011;62796;42.654;23.316;2023-03-23T11:04:45;8.93;;;7.38;;
29196;SDS011;62796;42.654;23.316;2023-03-23T11:07:18;8.93;;;7.40;;
29196;SDS011;62796;42.654;23.316;2023-03-23T11:09:53;13.82;;;7.95;;
29196;SDS011;62796;42.654;23.316;2023-03-23T11:12:20;11.45;;;7.00;;
29196;SDS011;62796;42.654;23.316;2023-03-23T11:14:47;16.02;;;9.20;;
29196;SDS011;62796;42.654;23.316;2023-03-23T11:17:22;18.05;;;9.30;;
29196;SDS011;62796;42.654;23.316;2023-03-23T11:19:49;16.40;;;8.32;;
29196;SDS011;62796;42.654;23.316;2023-03-23T11:22:28;14.00;;;7.22;;
29196;SDS011;62796;42.654;23.316;2023-03-23T11:24:59;11.13;;;8.45;;
29196;SDS011;62796;42.654;23.316;2023-03-23T11:27:26;9.20;;;7.25;;
29196;SDS011;62796;42.654;23.316;2023-03-23T11:29:54;8.40;;;7.05;;
29196;SDS011;62796;42.654;23.316;2023-03-23T11:32:24;9.73;;;7.28;;
29196;SDS011;62796;42.654;23.316;2023-03-23T11:34:55;8.07;;;7.28;;
29196;SDS011;62796;42.654;23.316;2023-03-23T11:37:27;12.07;;;8.15;;
29196;SDS011;62796;42.654;23.316;2023-03-23T11:45:13;9.90;;;7.50;;
29196;SDS011;62796;42.654;23.316;2023-03-23T11:47:59;9.27;;;7.47;;
29196;SDS011;62796;42.654;23.316;2023-03-23T11:50:33;8.05;;;6.93;;
29196;SDS011;62796;42.654;23.316;2023-03-23T11:55:49;15.52;;;7.15;;
29196;SDS011;62796;42.654;23.316;2023-03-23T11:58:20;10.57;;;6.97;;
29196;SDS011;62796;42.654;23.316;2023-03-23T12:03:22;22.55;;;7.68;;
29196;SDS011;62796;42.654;23.316;2023-03-23T12:06:12;8.05;;;6.50;;
29196;SDS011;62796;42.654;23.316;2023-03-23T12:17:10;19.90;;;7.93;;
29196;SDS011;62796;42.654;23.316;2023-03-23T12:19:53;11.20;;;7.45;;
29196;SDS011;62796;42.654;23.316;2023-03-23T12:36:19;11.20;;;7.10;;
29196;SDS011;62796;42.654;23.316;2023-03-23T12:41:30;10.50;;;6.85;;
29196;SDS011;62796;42.654;23.316;2023-03-23T12:44:10;10.40;;;6.95;;
29196;SDS011;62796;42.654;23.316;2023-03-23T12:50:05;8.85;;;7.05;;
29196;SDS011;62796;42.654;23.316;2023-03-23T12:52:38;7.80;;;6.25;;
29196;SDS011;62796;42.654;23.316;2023-03-23T12:55:49;11.38;;;6.78;;
29196;SDS011;62796;42.654;23.316;2023-03-23T12:58:30;14.55;;;6.70;;
29196;SDS011;62796;42.654;23.316;2023-03-23T13:01:04;9.80;;;6.72;;
29196;SDS011;62796;42.654;23.316;2023-03-23T13:08:44;11.18;;;6.47;;
29196;SDS011;62796;42.654;23.316;2023-03-23T13:11:20;7.10;;;5.85;;
29196;SDS011;62796;42.654;23.316;2023-03-23T13:13:53;6.80;;;5.82;;
29196;SDS011;62796;42.654;23.316;2023-03-23T13:24:27;9.30;;;5.78;;
29196;SDS011;62796;42.654;23.316;2023-03-23T13:26:56;15.02;;;6.50;;
29196;SDS011;62796;42.654;23.316;2023-03-23T13:29:26;6.97;;;6.28;;
29196;SDS011;62796;42.654;23.316;2023-03-23T13:31:52;10.40;;;7.15;;
29196;SDS011;62796;42.654;23.316;2023-03-23T13:34:31;8.55;;;5.32;;
29196;SDS011;62796;42.654;23.316;2023-03-23T13:42:00;8.20;;;5.47;;
29196;SDS011;62796;42.654;23.316;2023-03-23T13:49:57;7.20;;;5.80;;
29196;SDS011;62796;42.654;23.316;2023-03-23T13:54:51;6.82;;;5.38;;
29196;SDS011;62796;42.654;23.316;2023-03-23T13:59:54;7.20;;;5.57;;
29196;SDS011;62796;42.654;23.316;2023-03-23T14:02:30;10.20;;;5.90;;
29196;SDS011;62796;42.654;23.316;2023-03-23T14:04:56;9.38;;;5.70;;
29196;SDS011;62796;42.654;23.316;2023-03-23T14:07:49;8.00;;;4.95;;
29196;SDS011;62796;42.654;23.316;2023-03-23T14:10:33;9.23;;;5.50;;
29196;SDS011;62796;42.654;23.316;2023-03-23T14:13:31;6.28;;;5.68;;
29196;SDS011;62796;42.654;23.316;2023-03-23T14:16:03;8.43;;;5.82;;
29196;SDS011;62796;42.654;23.316;2023-03-23T14:18:55;6.22;;;5.63;;
29196;SDS011;62796;42.654;23.316;2023-03-23T14:21:33;8.88;;;5.43;;
29196;SDS011;62796;42.654;23.316;2023-03-23T14:24:08;7.78;;;6.30;;
29196;SDS011;62796;42.654;23.316;2023-03-23T14:26:36;7.13;;;6.40;;
29196;SDS011;62796;42.654;23.316;2023-03-23T14:29:03;12.30;;;6.32;;
29196;SDS011;62796;42.654;23.316;2023-03-23T14:31:29;13.18;;;6.18;;
29196;SDS011;62796;42.654;23.316;2023-03-23T14:33:55;8.23;;;6.47;;
29196;SDS011;62796;42.654;23.316;2023-03-23T14:36:26;7.20;;;6.50;;
29196;SDS011;62796;42.654;23.316;2023-03-23T14:41:49;7.00;;;6.07;;
29196;SDS011;62796;42.654;23.316;2023-03-23T14:44:18;11.98;;;8.23;;
29196;SDS011;62796;42.654;23.316;2023-03-23T14:46:48;19.33;;;15.63;;
29196;SDS011;62796;42.654;23.316;2023-03-23T14:49:15;10.70;;;6.90;;
29196;SDS011;62796;42.654;23.316;2023-03-23T14:51:50;9.82;;;6.75;;
29196;SDS011;62796;42.654;23.316;2023-03-23T14:56:47;8.25;;;6.72;;
29196;SDS011;62796;42.654;23.316;2023-03-23T14:59:13;13.10;;;6.95;;
29196;SDS011;62796;42.654;23.316;2023-03-23T15:01:39;8.27;;;6.95;;
29196;SDS011;62796;42.654;23.316;2023-03-23T15:04:13;10.45;;;6.82;;
29196;SDS011;62796;42.654;23.316;2023-03-23T15:06:44;10.18;;;7.05;;
29196;SDS011;62796;42.654;23.316;2023-03-23T15:09:14;10.65;;;8.07;;
29196;SDS011;62796;42.654;23.316;2023-03-23T15:11:43;12.20;;;7.57;;
29196;SDS011;62796;42.654;23.316;2023-03-23T15:14:19;10.82;;;7.03;;
29196;SDS011;62796;42.654;23.316;2023-03-23T15:16:48;8.45;;;7.22;;
29196;SDS011;62796;42.654;23.316;2023-03-23T15:19:20;9.20;;;7.03;;
29196;SDS011;62796;42.654;23.316;2023-03-23T15:21:53;10.60;;;7.22;;
29196;SDS011;62796;42.654;23.316;2023-03-23T15:24:25;9.02;;;7.07;;
29196;SDS011;62796;42.654;23.316;2023-03-23T15:27:17;12.48;;;7.55;;
29196;SDS011;62796;42.654;23.316;2023-03-23T15:30:27;11.80;;;7.45;;
29196;SDS011;62796;42.654;23.316;2023-03-23T15:32:53;12.32;;;7.70;;
29196;SDS011;62796;42.654;23.316;2023-03-23T15:35:24;10.55;;;7.97;;
29196;SDS011;62796;42.654;23.316;2023-03-23T15:38:04;11.00;;;7.60;;
29196;SDS011;62796;42.654;23.316;2023-03-23T15:40:32;9.60;;;7.20;;
29196;SDS011;62796;42.654;23.316;2023-03-23T15:43:17;9.07;;;7.18;;
29196;SDS011;62796;42.654;23.316;2023-03-23T15:45:58;11.07;;;7.43;;
29196;SDS011;62796;42.654;23.316;2023-03-23T15:48:51;9.68;;;8.00;;
29196;SDS011;62796;42.654;23.316;2023-03-23T15:51:38;12.52;;;8.07;;
29196;SDS011;62796;42.654;23.316;2023-03-23T15:54:05;10.88;;;7.50;;
29196;SDS011;62796;42.654;23.316;2023-03-23T15:56:37;10.57;;;6.95;;
29196;SDS011;62796;42.654;23.316;2023-03-23T15:59:03;9.70;;;6.68;;
29196;SDS011;62796;42.654;23.316;2023-03-23T16:01:28;10.75;;;7.68;;
29196;SDS011;62796;42.654;23.316;2023-03-23T16:06:36;8.95;;;6.60;;
29196;SDS011;62796;42.654;23.316;2023-03-23T16:09:02;11.32;;;6.85;;
29196;SDS011;62796;42.654;23.316;2023-03-23T16:11:29;8.50;;;7.22;;
29196;SDS011;62796;42.654;23.316;2023-03-23T16:13:55;12.02;;;7.22;;
29196;SDS011;62796;42.654;23.316;2023-03-23T16:16:22;11.68;;;7.60;;
29196;SDS011;62796;42.654;23.316;2023-03-23T16:18:51;11.10;;;7.30;;
29196;SDS011;62796;42.654;23.316;2023-03-23T16:21:16;12.20;;;7.63;;
29196;SDS011;62796;42.654;23.316;2023-03-23T16:23:42;14.10;;;7.85;;
29196;SDS011;62796;42.654;23.316;2023-03-23T16:26:10;13.63;;;8.48;;
29196;SDS011;62796;42.654;23.316;2023-03-23T16:28:36;17.98;;;9.07;;
29196;SDS011;62796;42.654;23.316;2023-03-23T16:31:02;13.13;;;9.35;;
29196;SDS011;62796;42.654;23.316;2023-03-23T16:33:28;19.73;;;10.70;;
29196;SDS011;62796;42.654;23.316;2023-03-23T16:35:53;19.27;;;11.10;;
29196;SDS011;62796;42.654;23.316;2023-03-23T16:38:18;22.50;;;11.23;;
29196;SDS011;62796;42.654;23.316;2023-03-23T16:40:45;19.52;;;11.38;;
29196;SDS011;62796;42.654;23.316;2023-03-23T16:43:11;17.90;;;10.77;;
29196;SDS011;62796;42.654;23.316;2023-03-23T16:45:39;19.35;;;10.60;;